sensor_id;sensor_type;location;lat;lon;timestamp;P1;durP1;ratioP1;P2;durP2;ratioP2
68106;SDS011;54892;47.488;19.026;2022-11-15T00:00:19;18.70;;;10.40;;
68106;SDS011;54892;47.488;19.026;2022-11-15T00:03:23;18.20;;;10.85;;
68106;SDS011;54892;47.488;19.026;2022-11-15T00:06:27;19.70;;;11.32;;
68106;SDS011;54892;47.488;19.026;2022-11-15T00:09:31;22.25;;;11.95;;
68106;SDS011;54892;47.488;19.026;2022-11-15T00:12:35;21.67;;;11.98;;
68106;SDS011;54892;47.488;19.026;2022-11-15T00:15:39;20.27;;;11.23;;
68106;SDS011;54892;47.488;19.026;2022-11-15T00:18:43;19.33;;;11.57;;
68106;SDS011;54892;47.488;19.026;2022-11-15T00:21:49;17.08;;;10.13;;
68106;SDS011;54892;47.488;19.026;2022-11-15T00:24:53;19.65;;;11.60;;
68106;SDS011;54892;47.488;19.026;2022-11-15T00:27:58;20.62;;;11.82;;
68106;SDS011;54892;47.488;19.026;2022-11-15T00:31:03;18.17;;;10.75;;
68106;SDS011;54892;47.488;19.026;2022-11-15T00:34:08;20.17;;;11.57;;
68106;SDS011;54892;47.488;19.026;2022-11-15T00:37:12;18.27;;;11.07;;
68106;SDS011;54892;47.488;19.026;2022-11-15T00:40:16;20.40;;;12.13;;
68106;SDS011;54892;47.488;19.026;2022-11-15T00:43:21;18.73;;;10.55;;
68106;SDS011;54892;47.488;19.026;2022-11-15T00:46:24;18.23;;;11.10;;
68106;SDS011;54892;47.488;19.026;2022-11-15T00:49:28;19.20;;;11.18;;
68106;SDS011;54892;47.488;19.026;2022-11-15T00:52:31;18.30;;;11.05;;
68106;SDS011;54892;47.488;19.026;2022-11-15T00:55:35;18.77;;;10.88;;
68106;SDS011;54892;47.488;19.026;2022-11-15T00:58:39;18.40;;;10.90;;
68106;SDS011;54892;47.488;19.026;2022-11-15T01:01:43;17.12;;;10.48;;
68106;SDS011;54892;47.488;19.026;2022-11-15T01:04:46;16.90;;;10.05;;
68106;SDS011;54892;47.488;19.026;2022-11-15T01:07:51;18.83;;;10.35;;
68106;SDS011;54892;47.488;19.026;2022-11-15T01:10:54;17.65;;;10.52;;
68106;SDS011;54892;47.488;19.026;2022-11-15T01:14:06;14.75;;;10.30;;
68106;SDS011;54892;47.488;19.026;2022-11-15T01:17:09;18.05;;;10.25;;
68106;SDS011;54892;47.488;19.026;2022-11-15T01:20:12;15.15;;;8.70;;
68106;SDS011;54892;47.488;19.026;2022-11-15T01:23:15;16.15;;;9.52;;
68106;SDS011;54892;47.488;19.026;2022-11-15T01:26:19;15.73;;;9.73;;
68106;SDS011;54892;47.488;19.026;2022-11-15T01:29:23;15.10;;;9.32;;
68106;SDS011;54892;47.488;19.026;2022-11-15T01:32:27;18.70;;;9.23;;
68106;SDS011;54892;47.488;19.026;2022-11-15T01:35:30;13.40;;;8.77;;
68106;SDS011;54892;47.488;19.026;2022-11-15T01:38:33;16.25;;;8.70;;
68106;SDS011;54892;47.488;19.026;2022-11-15T01:41:37;14.07;;;9.10;;
68106;SDS011;54892;47.488;19.026;2022-11-15T01:44:42;13.32;;;8.40;;
68106;SDS011;54892;47.488;19.026;2022-11-15T01:47:48;15.35;;;8.65;;
68106;SDS011;54892;47.488;19.026;2022-11-15T01:50:55;14.25;;;8.95;;
68106;SDS011;54892;47.488;19.026;2022-11-15T01:54:00;15.38;;;9.43;;
68106;SDS011;54892;47.488;19.026;2022-11-15T01:57:08;14.45;;;9.10;;
68106;SDS011;54892;47.488;19.026;2022-11-15T02:03:20;17.23;;;9.30;;
68106;SDS011;54892;47.488;19.026;2022-11-15T02:06:27;15.52;;;8.95;;
68106;SDS011;54892;47.488;19.026;2022-11-15T02:09:31;14.57;;;8.75;;
68106;SDS011;54892;47.488;19.026;2022-11-15T02:12:34;14.45;;;8.52;;
68106;SDS011;54892;47.488;19.026;2022-11-15T02:15:40;12.18;;;7.87;;
68106;SDS011;54892;47.488;19.026;2022-11-15T02:18:51;12.23;;;8.23;;
68106;SDS011;54892;47.488;19.026;2022-11-15T02:22:04;12.63;;;8.20;;
68106;SDS011;54892;47.488;19.026;2022-11-15T02:25:31;14.80;;;9.02;;
68106;SDS011;54892;47.488;19.026;2022-11-15T02:28:44;11.25;;;8.10;;
68106;SDS011;54892;47.488;19.026;2022-11-15T02:31:58;12.07;;;8.45;;
68106;SDS011;54892;47.488;19.026;2022-11-15T02:35:07;15.25;;;9.70;;
68106;SDS011;54892;47.488;19.026;2022-11-15T02:38:21;16.62;;;9.68;;
68106;SDS011;54892;47.488;19.026;2022-11-15T02:41:30;15.25;;;9.48;;
68106;SDS011;54892;47.488;19.026;2022-11-15T02:44:42;14.60;;;8.95;;
68106;SDS011;54892;47.488;19.026;2022-11-15T02:47:49;14.57;;;8.43;;
68106;SDS011;54892;47.488;19.026;2022-11-15T02:50:54;14.55;;;8.48;;
68106;SDS011;54892;47.488;19.026;2022-11-15T02:53:58;16.50;;;8.13;;
68106;SDS011;54892;47.488;19.026;2022-11-15T02:57:02;14.15;;;8.52;;
68106;SDS011;54892;47.488;19.026;2022-11-15T03:00:08;12.45;;;7.53;;
68106;SDS011;54892;47.488;19.026;2022-11-15T03:03:22;9.82;;;7.43;;
68106;SDS011;54892;47.488;19.026;2022-11-15T03:06:39;13.27;;;8.40;;
68106;SDS011;54892;47.488;19.026;2022-11-15T03:09:50;13.05;;;8.20;;
68106;SDS011;54892;47.488;19.026;2022-11-15T03:12:59;12.70;;;8.00;;
68106;SDS011;54892;47.488;19.026;2022-11-15T03:16:15;14.55;;;8.50;;
68106;SDS011;54892;47.488;19.026;2022-11-15T03:19:25;14.00;;;8.43;;
68106;SDS011;54892;47.488;19.026;2022-11-15T03:22:33;13.77;;;7.90;;
68106;SDS011;54892;47.488;19.026;2022-11-15T03:25:40;13.55;;;8.55;;
68106;SDS011;54892;47.488;19.026;2022-11-15T03:28:49;13.20;;;9.00;;
68106;SDS011;54892;47.488;19.026;2022-11-15T03:31:56;14.90;;;8.65;;
68106;SDS011;54892;47.488;19.026;2022-11-15T03:35:05;13.90;;;7.68;;
68106;SDS011;54892;47.488;19.026;2022-11-15T03:38:14;14.63;;;8.55;;
68106;SDS011;54892;47.488;19.026;2022-11-15T03:41:21;12.93;;;8.07;;
68106;SDS011;54892;47.488;19.026;2022-11-15T03:44:31;13.40;;;8.40;;
68106;SDS011;54892;47.488;19.026;2022-11-15T03:47:39;14.87;;;8.70;;
68106;SDS011;54892;47.488;19.026;2022-11-15T03:50:48;14.35;;;8.70;;
68106;SDS011;54892;47.488;19.026;2022-11-15T03:53:51;17.08;;;9.27;;
68106;SDS011;54892;47.488;19.026;2022-11-15T03:56:55;14.55;;;8.90;;
68106;SDS011;54892;47.488;19.026;2022-11-15T03:59:58;15.02;;;9.07;;
68106;SDS011;54892;47.488;19.026;2022-11-15T04:03:01;12.77;;;8.45;;
68106;SDS011;54892;47.488;19.026;2022-11-15T04:06:06;15.85;;;7.80;;
68106;SDS011;54892;47.488;19.026;2022-11-15T04:09:10;14.27;;;8.73;;
68106;SDS011;54892;47.488;19.026;2022-11-15T04:12:13;13.82;;;7.60;;
68106;SDS011;54892;47.488;19.026;2022-11-15T04:15:32;15.25;;;8.18;;
68106;SDS011;54892;47.488;19.026;2022-11-15T04:18:35;14.02;;;8.50;;
68106;SDS011;54892;47.488;19.026;2022-11-15T04:21:40;15.23;;;8.27;;
68106;SDS011;54892;47.488;19.026;2022-11-15T04:25:06;13.73;;;7.87;;
68106;SDS011;54892;47.488;19.026;2022-11-15T04:28:10;13.32;;;7.95;;
68106;SDS011;54892;47.488;19.026;2022-11-15T04:31:14;13.07;;;8.15;;
68106;SDS011;54892;47.488;19.026;2022-11-15T04:34:17;13.57;;;8.23;;
68106;SDS011;54892;47.488;19.026;2022-11-15T04:37:21;12.98;;;7.93;;
68106;SDS011;54892;47.488;19.026;2022-11-15T04:40:24;14.85;;;8.23;;
68106;SDS011;54892;47.488;19.026;2022-11-15T04:43:28;17.15;;;9.15;;
68106;SDS011;54892;47.488;19.026;2022-11-15T04:46:32;14.82;;;9.02;;
68106;SDS011;54892;47.488;19.026;2022-11-15T04:49:35;11.93;;;8.10;;
68106;SDS011;54892;47.488;19.026;2022-11-15T04:52:41;15.73;;;8.38;;
68106;SDS011;54892;47.488;19.026;2022-11-15T04:55:46;15.40;;;8.98;;
68106;SDS011;54892;47.488;19.026;2022-11-15T04:58:49;14.43;;;8.25;;
68106;SDS011;54892;47.488;19.026;2022-11-15T05:01:52;15.90;;;8.65;;
68106;SDS011;54892;47.488;19.026;2022-11-15T05:04:56;16.50;;;8.85;;
68106;SDS011;54892;47.488;19.026;2022-11-15T05:07:59;13.82;;;8.38;;
68106;SDS011;54892;47.488;19.026;2022-11-15T05:11:03;17.12;;;8.90;;
68106;SDS011;54892;47.488;19.026;2022-11-15T05:14:06;14.85;;;8.80;;
68106;SDS011;54892;47.488;19.026;2022-11-15T05:17:09;19.58;;;9.23;;
68106;SDS011;54892;47.488;19.026;2022-11-15T05:20:12;12.63;;;7.53;;
68106;SDS011;54892;47.488;19.026;2022-11-15T05:23:17;14.63;;;7.85;;
68106;SDS011;54892;47.488;19.026;2022-11-15T05:26:20;13.43;;;8.75;;
68106;SDS011;54892;47.488;19.026;2022-11-15T05:29:23;16.87;;;8.40;;
68106;SDS011;54892;47.488;19.026;2022-11-15T05:32:27;13.18;;;8.05;;
68106;SDS011;54892;47.488;19.026;2022-11-15T05:35:33;13.98;;;8.35;;
68106;SDS011;54892;47.488;19.026;2022-11-15T05:38:42;13.70;;;7.75;;
68106;SDS011;54892;47.488;19.026;2022-11-15T05:41:46;13.53;;;8.00;;
68106;SDS011;54892;47.488;19.026;2022-11-15T05:44:54;15.80;;;8.30;;
68106;SDS011;54892;47.488;19.026;2022-11-15T05:48:01;13.25;;;8.38;;
68106;SDS011;54892;47.488;19.026;2022-11-15T05:51:08;16.42;;;8.68;;
68106;SDS011;54892;47.488;19.026;2022-11-15T05:54:13;15.55;;;9.30;;
68106;SDS011;54892;47.488;19.026;2022-11-15T05:57:17;19.35;;;9.32;;
68106;SDS011;54892;47.488;19.026;2022-11-15T06:00:22;15.85;;;9.43;;
68106;SDS011;54892;47.488;19.026;2022-11-15T06:03:25;16.90;;;9.57;;
68106;SDS011;54892;47.488;19.026;2022-11-15T06:06:28;16.85;;;10.23;;
68106;SDS011;54892;47.488;19.026;2022-11-15T06:09:33;16.25;;;9.82;;
68106;SDS011;54892;47.488;19.026;2022-11-15T06:12:36;18.17;;;9.98;;
68106;SDS011;54892;47.488;19.026;2022-11-15T06:15:39;18.75;;;10.93;;
68106;SDS011;54892;47.488;19.026;2022-11-15T06:18:42;22.33;;;11.98;;
68106;SDS011;54892;47.488;19.026;2022-11-15T06:21:45;20.42;;;11.57;;
68106;SDS011;54892;47.488;19.026;2022-11-15T06:24:50;18.87;;;10.57;;
68106;SDS011;54892;47.488;19.026;2022-11-15T06:27:53;18.65;;;10.70;;
68106;SDS011;54892;47.488;19.026;2022-11-15T06:31:01;18.55;;;11.45;;
68106;SDS011;54892;47.488;19.026;2022-11-15T06:34:05;23.12;;;11.65;;
68106;SDS011;54892;47.488;19.026;2022-11-15T06:37:09;17.73;;;11.63;;
68106;SDS011;54892;47.488;19.026;2022-11-15T06:40:13;21.92;;;12.10;;
68106;SDS011;54892;47.488;19.026;2022-11-15T06:43:18;19.58;;;11.85;;
68106;SDS011;54892;47.488;19.026;2022-11-15T06:46:21;22.00;;;11.93;;
68106;SDS011;54892;47.488;19.026;2022-11-15T06:49:24;22.80;;;13.20;;
68106;SDS011;54892;47.488;19.026;2022-11-15T06:52:27;26.02;;;12.93;;
68106;SDS011;54892;47.488;19.026;2022-11-15T06:55:35;22.60;;;12.20;;
68106;SDS011;54892;47.488;19.026;2022-11-15T06:58:38;23.08;;;13.15;;
68106;SDS011;54892;47.488;19.026;2022-11-15T07:01:41;22.70;;;13.40;;
68106;SDS011;54892;47.488;19.026;2022-11-15T07:04:45;23.38;;;13.00;;
68106;SDS011;54892;47.488;19.026;2022-11-15T07:07:51;21.45;;;12.75;;
68106;SDS011;54892;47.488;19.026;2022-11-15T07:10:56;22.10;;;12.27;;
68106;SDS011;54892;47.488;19.026;2022-11-15T07:14:01;23.42;;;12.60;;
68106;SDS011;54892;47.488;19.026;2022-11-15T07:17:04;22.00;;;13.13;;
68106;SDS011;54892;47.488;19.026;2022-11-15T07:20:08;22.45;;;13.10;;
68106;SDS011;54892;47.488;19.026;2022-11-15T07:23:12;23.27;;;13.10;;
68106;SDS011;54892;47.488;19.026;2022-11-15T07:26:16;23.92;;;12.80;;
68106;SDS011;54892;47.488;19.026;2022-11-15T07:29:20;24.37;;;12.63;;
68106;SDS011;54892;47.488;19.026;2022-11-15T07:32:23;23.80;;;12.63;;
68106;SDS011;54892;47.488;19.026;2022-11-15T07:35:28;22.42;;;12.85;;
68106;SDS011;54892;47.488;19.026;2022-11-15T07:38:32;23.57;;;12.80;;
68106;SDS011;54892;47.488;19.026;2022-11-15T07:41:41;20.95;;;12.73;;
68106;SDS011;54892;47.488;19.026;2022-11-15T07:44:45;25.42;;;12.98;;
68106;SDS011;54892;47.488;19.026;2022-11-15T07:47:49;23.75;;;12.65;;
68106;SDS011;54892;47.488;19.026;2022-11-15T07:50:52;23.10;;;12.85;;
68106;SDS011;54892;47.488;19.026;2022-11-15T07:53:55;22.95;;;13.15;;
68106;SDS011;54892;47.488;19.026;2022-11-15T07:57:00;26.80;;;13.50;;
68106;SDS011;54892;47.488;19.026;2022-11-15T08:00:07;25.52;;;13.60;;
68106;SDS011;54892;47.488;19.026;2022-11-15T08:03:12;25.23;;;14.23;;
68106;SDS011;54892;47.488;19.026;2022-11-15T08:09:20;25.92;;;13.23;;
68106;SDS011;54892;47.488;19.026;2022-11-15T08:12:25;23.80;;;13.90;;
68106;SDS011;54892;47.488;19.026;2022-11-15T08:15:28;30.85;;;13.65;;
68106;SDS011;54892;47.488;19.026;2022-11-15T08:18:32;23.90;;;13.38;;
68106;SDS011;54892;47.488;19.026;2022-11-15T08:21:35;29.35;;;13.88;;
68106;SDS011;54892;47.488;19.026;2022-11-15T08:24:38;23.42;;;14.20;;
68106;SDS011;54892;47.488;19.026;2022-11-15T08:27:42;26.48;;;14.73;;
68106;SDS011;54892;47.488;19.026;2022-11-15T08:30:46;30.42;;;14.23;;
68106;SDS011;54892;47.488;19.026;2022-11-15T08:33:49;26.45;;;14.55;;
68106;SDS011;54892;47.488;19.026;2022-11-15T08:36:52;24.20;;;13.98;;
68106;SDS011;54892;47.488;19.026;2022-11-15T08:39:55;24.70;;;14.50;;
68106;SDS011;54892;47.488;19.026;2022-11-15T08:43:00;29.42;;;15.18;;
68106;SDS011;54892;47.488;19.026;2022-11-15T08:46:04;24.65;;;13.75;;
68106;SDS011;54892;47.488;19.026;2022-11-15T08:49:07;25.95;;;13.85;;
68106;SDS011;54892;47.488;19.026;2022-11-15T08:52:10;23.02;;;14.38;;
68106;SDS011;54892;47.488;19.026;2022-11-15T08:55:13;26.05;;;15.23;;
68106;SDS011;54892;47.488;19.026;2022-11-15T08:58:19;26.90;;;14.43;;
68106;SDS011;54892;47.488;19.026;2022-11-15T09:01:22;23.48;;;14.60;;
68106;SDS011;54892;47.488;19.026;2022-11-15T09:04:25;24.77;;;14.30;;
68106;SDS011;54892;47.488;19.026;2022-11-15T09:07:28;25.95;;;14.85;;
68106;SDS011;54892;47.488;19.026;2022-11-15T09:10:33;31.47;;;15.87;;
68106;SDS011;54892;47.488;19.026;2022-11-15T09:13:38;25.62;;;14.02;;
68106;SDS011;54892;47.488;19.026;2022-11-15T09:16:41;26.98;;;15.02;;
68106;SDS011;54892;47.488;19.026;2022-11-15T09:19:44;24.25;;;14.38;;
68106;SDS011;54892;47.488;19.026;2022-11-15T09:22:47;26.58;;;15.02;;
68106;SDS011;54892;47.488;19.026;2022-11-15T09:25:51;26.80;;;14.65;;
68106;SDS011;54892;47.488;19.026;2022-11-15T09:28:56;25.50;;;14.43;;
68106;SDS011;54892;47.488;19.026;2022-11-15T09:31:59;23.42;;;14.73;;
68106;SDS011;54892;47.488;19.026;2022-11-15T09:35:02;27.05;;;14.43;;
68106;SDS011;54892;47.488;19.026;2022-11-15T09:38:05;27.35;;;14.40;;
68106;SDS011;54892;47.488;19.026;2022-11-15T09:41:21;24.08;;;14.87;;
68106;SDS011;54892;47.488;19.026;2022-11-15T09:44:47;29.33;;;15.10;;
68106;SDS011;54892;47.488;19.026;2022-11-15T09:48:13;26.23;;;14.35;;
68106;SDS011;54892;47.488;19.026;2022-11-15T09:51:29;30.88;;;14.68;;
68106;SDS011;54892;47.488;19.026;2022-11-15T09:54:36;27.25;;;14.23;;
68106;SDS011;54892;47.488;19.026;2022-11-15T09:57:58;30.12;;;15.18;;
68106;SDS011;54892;47.488;19.026;2022-11-15T10:01:12;33.25;;;16.30;;
68106;SDS011;54892;47.488;19.026;2022-11-15T10:04:38;24.05;;;14.63;;
68106;SDS011;54892;47.488;19.026;2022-11-15T10:07:44;30.17;;;15.43;;
68106;SDS011;54892;47.488;19.026;2022-11-15T10:10:55;29.60;;;15.45;;
68106;SDS011;54892;47.488;19.026;2022-11-15T10:14:11;23.98;;;15.35;;
68106;SDS011;54892;47.488;19.026;2022-11-15T10:17:23;26.02;;;14.93;;
68106;SDS011;54892;47.488;19.026;2022-11-15T10:20:47;23.95;;;14.35;;
68106;SDS011;54892;47.488;19.026;2022-11-15T10:23:52;27.10;;;15.30;;
68106;SDS011;54892;47.488;19.026;2022-11-15T10:26:56;27.77;;;15.05;;
68106;SDS011;54892;47.488;19.026;2022-11-15T10:29:59;30.75;;;16.52;;
68106;SDS011;54892;47.488;19.026;2022-11-15T10:33:16;31.20;;;16.33;;
68106;SDS011;54892;47.488;19.026;2022-11-15T10:36:26;32.10;;;16.92;;
68106;SDS011;54892;47.488;19.026;2022-11-15T10:39:30;26.02;;;15.98;;
68106;SDS011;54892;47.488;19.026;2022-11-15T10:42:35;26.48;;;16.40;;
68106;SDS011;54892;47.488;19.026;2022-11-15T10:45:38;27.95;;;16.33;;
68106;SDS011;54892;47.488;19.026;2022-11-15T10:48:43;27.13;;;15.77;;
68106;SDS011;54892;47.488;19.026;2022-11-15T10:51:47;28.30;;;17.10;;
68106;SDS011;54892;47.488;19.026;2022-11-15T10:54:53;25.37;;;15.55;;
68106;SDS011;54892;47.488;19.026;2022-11-15T10:58:01;29.58;;;16.33;;
68106;SDS011;54892;47.488;19.026;2022-11-15T11:01:10;27.50;;;16.35;;
68106;SDS011;54892;47.488;19.026;2022-11-15T11:04:16;30.08;;;16.77;;
68106;SDS011;54892;47.488;19.026;2022-11-15T11:07:21;28.67;;;16.63;;
68106;SDS011;54892;47.488;19.026;2022-11-15T11:10:25;31.87;;;17.60;;
68106;SDS011;54892;47.488;19.026;2022-11-15T11:13:48;29.98;;;17.12;;
68106;SDS011;54892;47.488;19.026;2022-11-15T11:16:52;26.40;;;15.98;;
68106;SDS011;54892;47.488;19.026;2022-11-15T11:20:01;30.15;;;16.42;;
68106;SDS011;54892;47.488;19.026;2022-11-15T11:23:16;28.52;;;17.45;;
68106;SDS011;54892;47.488;19.026;2022-11-15T11:26:35;32.90;;;17.45;;
68106;SDS011;54892;47.488;19.026;2022-11-15T11:29:48;32.80;;;17.80;;
68106;SDS011;54892;47.488;19.026;2022-11-15T11:33:05;31.73;;;17.90;;
68106;SDS011;54892;47.488;19.026;2022-11-15T11:36:19;31.00;;;16.83;;
68106;SDS011;54892;47.488;19.026;2022-11-15T11:39:28;25.48;;;14.90;;
68106;SDS011;54892;47.488;19.026;2022-11-15T11:42:47;27.45;;;15.38;;
68106;SDS011;54892;47.488;19.026;2022-11-15T11:46:04;26.58;;;15.60;;
68106;SDS011;54892;47.488;19.026;2022-11-15T11:49:16;26.27;;;15.07;;
68106;SDS011;54892;47.488;19.026;2022-11-15T11:52:28;26.17;;;14.80;;
68106;SDS011;54892;47.488;19.026;2022-11-15T11:55:36;25.52;;;14.77;;
68106;SDS011;54892;47.488;19.026;2022-11-15T11:58:43;25.85;;;14.63;;
68106;SDS011;54892;47.488;19.026;2022-11-15T12:01:48;28.33;;;15.13;;
68106;SDS011;54892;47.488;19.026;2022-11-15T12:04:52;25.70;;;14.73;;
68106;SDS011;54892;47.488;19.026;2022-11-15T12:08:03;24.95;;;14.05;;
68106;SDS011;54892;47.488;19.026;2022-11-15T12:11:12;26.35;;;15.52;;
68106;SDS011;54892;47.488;19.026;2022-11-15T12:14:22;26.90;;;15.27;;
68106;SDS011;54892;47.488;19.026;2022-11-15T12:17:30;30.52;;;16.10;;
68106;SDS011;54892;47.488;19.026;2022-11-15T12:20:35;31.20;;;16.58;;
68106;SDS011;54892;47.488;19.026;2022-11-15T12:23:45;27.80;;;15.93;;
68106;SDS011;54892;47.488;19.026;2022-11-15T12:26:54;28.77;;;16.15;;
68106;SDS011;54892;47.488;19.026;2022-11-15T12:30:03;29.77;;;17.37;;
68106;SDS011;54892;47.488;19.026;2022-11-15T12:33:30;27.60;;;15.85;;
68106;SDS011;54892;47.488;19.026;2022-11-15T12:36:37;27.92;;;16.55;;
68106;SDS011;54892;47.488;19.026;2022-11-15T12:43:10;28.27;;;17.25;;
68106;SDS011;54892;47.488;19.026;2022-11-15T12:50:10;32.20;;;18.25;;
68106;SDS011;54892;47.488;19.026;2022-11-15T12:53:25;32.03;;;19.62;;
68106;SDS011;54892;47.488;19.026;2022-11-15T12:56:29;36.47;;;20.12;;
68106;SDS011;54892;47.488;19.026;2022-11-15T13:03:12;39.80;;;20.55;;
68106;SDS011;54892;47.488;19.026;2022-11-15T13:09:53;35.70;;;20.58;;
68106;SDS011;54892;47.488;19.026;2022-11-15T13:12:57;41.72;;;22.77;;
68106;SDS011;54892;47.488;19.026;2022-11-15T13:16:03;43.05;;;22.05;;
68106;SDS011;54892;47.488;19.026;2022-11-15T13:19:09;36.05;;;21.58;;
68106;SDS011;54892;47.488;19.026;2022-11-15T13:22:13;37.38;;;19.87;;
68106;SDS011;54892;47.488;19.026;2022-11-15T13:25:50;35.00;;;20.80;;
68106;SDS011;54892;47.488;19.026;2022-11-15T13:29:04;34.78;;;19.90;;
68106;SDS011;54892;47.488;19.026;2022-11-15T13:32:21;36.55;;;18.75;;
68106;SDS011;54892;47.488;19.026;2022-11-15T13:35:25;29.60;;;17.30;;
68106;SDS011;54892;47.488;19.026;2022-11-15T13:38:31;36.65;;;19.02;;
68106;SDS011;54892;47.488;19.026;2022-11-15T13:41:36;29.37;;;18.42;;
68106;SDS011;54892;47.488;19.026;2022-11-15T13:44:54;34.13;;;18.12;;
68106;SDS011;54892;47.488;19.026;2022-11-15T13:47:59;32.83;;;18.48;;
68106;SDS011;54892;47.488;19.026;2022-11-15T13:51:08;35.63;;;19.15;;
68106;SDS011;54892;47.488;19.026;2022-11-15T13:54:19;39.70;;;21.75;;
68106;SDS011;54892;47.488;19.026;2022-11-15T13:57:27;35.00;;;19.60;;
68106;SDS011;54892;47.488;19.026;2022-11-15T14:00:35;32.28;;;19.50;;
68106;SDS011;54892;47.488;19.026;2022-11-15T14:03:42;36.28;;;18.73;;
68106;SDS011;54892;47.488;19.026;2022-11-15T14:06:52;30.02;;;18.17;;
68106;SDS011;54892;47.488;19.026;2022-11-15T14:09:59;32.10;;;18.77;;
68106;SDS011;54892;47.488;19.026;2022-11-15T14:13:26;26.92;;;16.87;;
68106;SDS011;54892;47.488;19.026;2022-11-15T14:16:32;29.35;;;17.50;;
68106;SDS011;54892;47.488;19.026;2022-11-15T14:19:39;31.42;;;17.87;;
68106;SDS011;54892;47.488;19.026;2022-11-15T14:22:50;29.67;;;17.65;;
68106;SDS011;54892;47.488;19.026;2022-11-15T14:25:54;29.60;;;17.08;;
68106;SDS011;54892;47.488;19.026;2022-11-15T14:32:27;31.83;;;16.42;;
68106;SDS011;54892;47.488;19.026;2022-11-15T14:35:33;31.90;;;16.33;;
68106;SDS011;54892;47.488;19.026;2022-11-15T14:38:40;29.98;;;15.75;;
68106;SDS011;54892;47.488;19.026;2022-11-15T14:41:44;27.00;;;15.63;;
68106;SDS011;54892;47.488;19.026;2022-11-15T14:44:47;27.17;;;16.85;;
68106;SDS011;54892;47.488;19.026;2022-11-15T14:47:51;30.58;;;18.33;;
68106;SDS011;54892;47.488;19.026;2022-11-15T14:50:55;29.65;;;17.70;;
68106;SDS011;54892;47.488;19.026;2022-11-15T14:53:59;32.13;;;19.03;;
68106;SDS011;54892;47.488;19.026;2022-11-15T14:57:02;30.37;;;17.95;;
68106;SDS011;54892;47.488;19.026;2022-11-15T15:00:06;28.55;;;15.75;;
68106;SDS011;54892;47.488;19.026;2022-11-15T15:03:11;28.17;;;16.02;;
68106;SDS011;54892;47.488;19.026;2022-11-15T15:06:16;29.33;;;16.10;;
68106;SDS011;54892;47.488;19.026;2022-11-15T15:09:19;27.92;;;16.67;;
68106;SDS011;54892;47.488;19.026;2022-11-15T15:12:22;29.55;;;17.25;;
68106;SDS011;54892;47.488;19.026;2022-11-15T15:15:32;31.90;;;16.35;;
68106;SDS011;54892;47.488;19.026;2022-11-15T15:18:37;29.08;;;16.52;;
68106;SDS011;54892;47.488;19.026;2022-11-15T15:21:41;26.62;;;15.75;;
68106;SDS011;54892;47.488;19.026;2022-11-15T15:24:45;30.58;;;16.50;;
68106;SDS011;54892;47.488;19.026;2022-11-15T15:27:48;29.08;;;16.65;;
68106;SDS011;54892;47.488;19.026;2022-11-15T15:30:52;32.17;;;17.37;;
68106;SDS011;54892;47.488;19.026;2022-11-15T15:33:55;29.25;;;16.50;;
68106;SDS011;54892;47.488;19.026;2022-11-15T15:37:11;26.40;;;15.25;;
68106;SDS011;54892;47.488;19.026;2022-11-15T15:40:25;29.48;;;17.12;;
68106;SDS011;54892;47.488;19.026;2022-11-15T15:43:31;31.92;;;17.23;;
68106;SDS011;54892;47.488;19.026;2022-11-15T15:46:34;28.60;;;16.17;;
68106;SDS011;54892;47.488;19.026;2022-11-15T15:49:37;29.67;;;16.15;;
68106;SDS011;54892;47.488;19.026;2022-11-15T15:52:41;28.17;;;16.80;;
68106;SDS011;54892;47.488;19.026;2022-11-15T15:55:45;31.05;;;16.83;;
68106;SDS011;54892;47.488;19.026;2022-11-15T15:58:48;29.27;;;16.30;;
68106;SDS011;54892;47.488;19.026;2022-11-15T16:01:51;34.08;;;17.23;;
68106;SDS011;54892;47.488;19.026;2022-11-15T16:04:54;29.48;;;16.92;;
68106;SDS011;54892;47.488;19.026;2022-11-15T16:07:59;30.20;;;15.93;;
68106;SDS011;54892;47.488;19.026;2022-11-15T16:11:03;28.73;;;16.52;;
68106;SDS011;54892;47.488;19.026;2022-11-15T16:14:07;31.42;;;16.98;;
68106;SDS011;54892;47.488;19.026;2022-11-15T16:17:11;32.42;;;17.48;;
68106;SDS011;54892;47.488;19.026;2022-11-15T16:20:28;32.90;;;17.27;;
68106;SDS011;54892;47.488;19.026;2022-11-15T16:23:35;30.02;;;17.48;;
68106;SDS011;54892;47.488;19.026;2022-11-15T16:26:38;32.13;;;17.73;;
68106;SDS011;54892;47.488;19.026;2022-11-15T16:29:42;33.33;;;18.60;;
68106;SDS011;54892;47.488;19.026;2022-11-15T16:32:45;33.05;;;17.23;;
68106;SDS011;54892;47.488;19.026;2022-11-15T16:35:48;33.40;;;18.17;;
68106;SDS011;54892;47.488;19.026;2022-11-15T16:38:53;33.40;;;18.00;;
68106;SDS011;54892;47.488;19.026;2022-11-15T16:41:56;33.58;;;17.77;;
68106;SDS011;54892;47.488;19.026;2022-11-15T16:45:00;36.88;;;18.23;;
68106;SDS011;54892;47.488;19.026;2022-11-15T16:48:03;36.30;;;18.45;;
68106;SDS011;54892;47.488;19.026;2022-11-15T16:51:07;41.97;;;19.50;;
68106;SDS011;54892;47.488;19.026;2022-11-15T16:54:12;37.13;;;19.48;;
68106;SDS011;54892;47.488;19.026;2022-11-15T16:57:16;36.30;;;18.80;;
68106;SDS011;54892;47.488;19.026;2022-11-15T17:00:20;36.97;;;19.40;;
68106;SDS011;54892;47.488;19.026;2022-11-15T17:03:24;40.70;;;19.70;;
68106;SDS011;54892;47.488;19.026;2022-11-15T17:06:27;39.55;;;19.92;;
68106;SDS011;54892;47.488;19.026;2022-11-15T17:09:32;40.55;;;20.25;;
68106;SDS011;54892;47.488;19.026;2022-11-15T17:12:35;39.80;;;21.02;;
68106;SDS011;54892;47.488;19.026;2022-11-15T17:15:39;40.85;;;19.80;;
68106;SDS011;54892;47.488;19.026;2022-11-15T17:18:42;39.17;;;19.73;;
68106;SDS011;54892;47.488;19.026;2022-11-15T17:21:46;34.42;;;19.35;;
68106;SDS011;54892;47.488;19.026;2022-11-15T17:24:52;41.55;;;21.45;;
68106;SDS011;54892;47.488;19.026;2022-11-15T17:27:56;42.40;;;20.95;;
68106;SDS011;54892;47.488;19.026;2022-11-15T17:30:59;40.22;;;20.73;;
68106;SDS011;54892;47.488;19.026;2022-11-15T17:34:02;44.42;;;21.12;;
68106;SDS011;54892;47.488;19.026;2022-11-15T17:37:07;46.63;;;20.65;;
68106;SDS011;54892;47.488;19.026;2022-11-15T17:40:14;40.88;;;20.80;;
68106;SDS011;54892;47.488;19.026;2022-11-15T17:43:17;43.30;;;21.63;;
68106;SDS011;54892;47.488;19.026;2022-11-15T17:46:20;36.53;;;20.25;;
68106;SDS011;54892;47.488;19.026;2022-11-15T17:49:23;39.83;;;19.95;;
68106;SDS011;54892;47.488;19.026;2022-11-15T17:52:27;39.17;;;20.65;;
68106;SDS011;54892;47.488;19.026;2022-11-15T17:55:32;39.28;;;20.45;;
68106;SDS011;54892;47.488;19.026;2022-11-15T18:01:38;39.70;;;19.27;;
68106;SDS011;54892;47.488;19.026;2022-11-15T18:04:42;43.50;;;20.52;;
68106;SDS011;54892;47.488;19.026;2022-11-15T18:07:47;40.40;;;19.85;;
68106;SDS011;54892;47.488;19.026;2022-11-15T18:11:00;44.60;;;21.15;;
68106;SDS011;54892;47.488;19.026;2022-11-15T18:14:05;41.97;;;19.20;;
68106;SDS011;54892;47.488;19.026;2022-11-15T18:17:09;42.20;;;20.45;;
68106;SDS011;54892;47.488;19.026;2022-11-15T18:20:14;40.03;;;20.05;;
68106;SDS011;54892;47.488;19.026;2022-11-15T18:23:18;39.15;;;19.65;;